Fort Lauderdale, FL

8:56 PM EDT on July 04, 2015 (GMT -0400)
Mills Pond Park Area | | Change Station
CLOSE
Current Station
Personal Weather Station
Location: Wilton Manors, FL
Elevation: 10 ft
Nearby Weather Stations

Elev 10 ft 26.16 °N, 80.16 °W | Updated 24 seconds ago

Partly Cloudy
Partly Cloudy
84.6 °F
Feels Like 90 °F
N
0.0
Wind Variable Wind from SE
Gusts 0.9 mph

Today
High -- | Low -- °F
--% Chance of Precip.
Yesterday
High -- | Low -- °F
Precip. -- in
6:33 AM 8:17 PM
Waning Gibbous, 89% visible
Pressure 30.11 in
Visibility 10.0 miles
Clouds Few 2700 ft
Heat Index 90 °F
Dew Point 72 °F
Humidity 65%
Rainfall in
Snow Depth Not available.
UV 0 out of 12
Pollen 3.20 out of 12
Air Quality Not available.
Flu Activity Not available.
METAR KFXE 042353Z 09008KT 10SM FEW027 29/23 A3010 RMK AO2 SLP194 T02940233 10322 20294 53008

More Conditions Fewer Conditions

Pressure 30.11 in
Visibility 10.0 miles
Clouds Few 2700 ft
Heat Index 90 °F
Dew Point 72 °F
Humidity 65%
Rainfall in
Snow Depth Not available.
UV 0 out of 12
Pollen 3.20 out of 12
Air Quality Not available.
Flu Activity Not available.
METAR KFXE 042353Z 09008KT 10SM FEW027 29/23 A3010 RMK AO2 SLP194 T02940233 10322 20294 53008

More Conditions Fewer Conditions

10-Day Weather Forecast

×

Almanac

Astronomy

Jul. 04, 2015 Rise Set
Actual Time
Civil Twilight
Nautical Twilight
Astronomical Twilight
Moon
Length of Visible Light
Length of Day
Tomorrow will be .
, % of the Moon is Illuminated

Today's Extremes

State Highs State Lows

Community

WunderPhotos

Upload Photos

1,835,125 photos uploaded!

WunderBlogs® & News

Nearby

Air Quality

  Air Quality AQ Index Pollutant
Not available.

Snow Depth

Station Depth Elevation

Earthquake Activity

City Distance Mag. Time & Date
Minimum magnitude displayed is 2.5.

Coastal Water Temperatures

Place Temperature

Stations

Nearby Weather Stations

Station Location Temp. Windchill Dew Point Humidity Wind Precip. Elev Updated Type